createdAt,value
2019-03-11T00:02:10.377Z,4.70
2019-03-11T00:04:39.701Z,4.70
2019-03-11T00:07:08.694Z,4.70
2019-03-11T00:09:37.507Z,4.80
2019-03-11T00:12:06.314Z,4.80
2019-03-11T00:14:35.228Z,4.80
2019-03-11T00:17:04.176Z,4.90
2019-03-11T00:19:33.083Z,4.90
2019-03-11T00:22:01.921Z,5.00
2019-03-11T00:24:30.802Z,5.10
2019-03-11T00:26:59.702Z,5.00
2019-03-11T00:29:28.619Z,4.70
2019-03-11T00:31:57.443Z,4.50
2019-03-11T00:34:26.296Z,4.30
2019-03-11T00:36:55.183Z,4.30
2019-03-11T00:39:24.027Z,4.10
2019-03-11T00:41:52.871Z,4.00
2019-03-11T00:44:21.683Z,3.70
2019-03-11T00:46:50.921Z,3.50
2019-03-11T00:49:20.130Z,3.40
2019-03-11T00:51:48.952Z,3.30
2019-03-11T00:54:17.779Z,3.30
2019-03-11T00:56:46.618Z,3.20
2019-03-11T00:59:15.452Z,3.20
2019-03-11T01:01:44.331Z,3.20
2019-03-11T01:04:13.266Z,3.20
2019-03-11T01:06:42.115Z,3.10
2019-03-11T01:09:11.010Z,3.10
2019-03-11T01:11:40.239Z,3.10
2019-03-11T01:14:09.534Z,3.20
2019-03-11T01:16:38.487Z,3.20
2019-03-11T01:19:07.302Z,3.20
2019-03-11T01:21:36.168Z,3.10
2019-03-11T01:24:05.079Z,3.10
2019-03-11T01:26:33.975Z,3.00
2019-03-11T01:29:03.623Z,3.00
2019-03-11T01:31:34.010Z,3.00
2019-03-11T01:34:02.959Z,3.00
2019-03-11T01:36:31.924Z,3.00
2019-03-11T01:39:00.785Z,3.00
2019-03-11T01:41:29.614Z,3.00
2019-03-11T01:43:58.522Z,3.00
2019-03-11T01:46:27.532Z,3.00
2019-03-11T01:48:56.416Z,3.10
2019-03-11T01:51:25.367Z,3.10
2019-03-11T01:53:54.172Z,3.20
2019-03-11T01:56:23.005Z,3.20
2019-03-11T01:58:51.886Z,3.20
2019-03-11T02:01:20.763Z,3.30
2019-03-11T02:03:49.617Z,3.40
2019-03-11T02:06:18.423Z,3.50
2019-03-11T02:08:47.255Z,3.60
2019-03-11T02:11:16.058Z,3.70
2019-03-11T02:13:44.864Z,3.70
2019-03-11T02:16:13.783Z,3.80
2019-03-11T02:18:42.596Z,3.90
2019-03-11T02:21:11.527Z,3.90
2019-03-11T02:23:40.368Z,3.90
2019-03-11T02:26:09.329Z,3.90
2019-03-11T02:28:38.231Z,3.90
2019-03-11T02:31:07.135Z,3.90
2019-03-11T02:33:36.104Z,3.90
2019-03-11T02:36:05.032Z,3.90
2019-03-11T02:38:33.860Z,3.90
2019-03-11T02:41:03.728Z,4.00
2019-03-11T02:43:32.535Z,4.00
2019-03-11T02:46:01.343Z,4.00
2019-03-11T02:48:30.192Z,4.00
2019-03-11T02:50:59.019Z,4.00
2019-03-11T02:53:27.860Z,4.00
2019-03-11T02:55:56.695Z,4.00
2019-03-11T02:58:25.602Z,4.20
2019-03-11T03:01:09.537Z,4.20
2019-03-11T03:03:40.526Z,4.10
2019-03-11T03:06:12.896Z,4.20
2019-03-11T03:08:41.738Z,4.10
2019-03-11T03:11:10.639Z,4.10
2019-03-11T03:13:39.487Z,4.10
2019-03-11T03:16:08.410Z,4.10
2019-03-11T03:18:37.243Z,4.10
2019-03-11T03:21:06.053Z,4.10
2019-03-11T03:23:35.146Z,4.00
2019-03-11T03:26:04.079Z,4.10
2019-03-11T03:28:32.915Z,4.10
2019-03-11T03:31:01.891Z,4.10
2019-03-11T03:33:30.814Z,4.10
2019-03-11T03:35:59.621Z,4.10
2019-03-11T03:38:30.813Z,4.10
2019-03-11T03:40:59.682Z,4.00
2019-03-11T03:43:28.562Z,4.10
2019-03-11T03:45:57.463Z,4.10
2019-03-11T03:48:26.541Z,4.10
2019-03-11T03:50:55.680Z,4.00
2019-03-11T03:53:24.501Z,4.00
2019-03-11T03:55:53.286Z,3.90
2019-03-11T03:58:22.206Z,3.90
2019-03-11T04:00:51.076Z,4.00
2019-03-11T04:03:19.965Z,4.00
2019-03-11T04:05:48.801Z,4.00
2019-03-11T04:08:17.972Z,4.00
2019-03-11T04:10:47.001Z,4.00
2019-03-11T04:13:15.985Z,4.00
2019-03-11T04:15:45.016Z,4.00
2019-03-11T04:18:14.215Z,4.00
2019-03-11T04:20:43.188Z,4.00
2019-03-11T04:23:12.431Z,4.00
2019-03-11T04:25:41.443Z,4.00
2019-03-11T04:28:10.432Z,4.10
2019-03-11T04:30:39.312Z,4.10
2019-03-11T04:33:08.517Z,4.10
2019-03-11T04:35:37.405Z,4.10
2019-03-11T04:38:06.226Z,4.00
2019-03-11T04:40:35.225Z,4.00
2019-03-11T04:43:04.207Z,4.00
2019-03-11T04:45:33.029Z,4.00
2019-03-11T04:48:01.994Z,4.00
2019-03-11T04:50:30.872Z,4.10
2019-03-11T04:52:59.714Z,4.20
2019-03-11T04:55:28.571Z,4.30
2019-03-11T04:57:57.391Z,4.20
2019-03-11T05:00:28.193Z,4.10
2019-03-11T05:02:57.160Z,4.10
2019-03-11T05:05:26.134Z,3.90
2019-03-11T05:07:55.187Z,3.80
2019-03-11T05:10:24.081Z,3.70
2019-03-11T05:12:53.558Z,3.60
2019-03-11T05:15:22.393Z,3.60
2019-03-11T05:17:51.414Z,3.50
2019-03-11T05:20:20.385Z,3.50
2019-03-11T05:22:49.409Z,3.50
2019-03-11T05:25:18.523Z,3.50
2019-03-11T05:27:47.522Z,3.40
2019-03-11T05:30:18.912Z,3.40
2019-03-11T05:32:48.044Z,3.40
2019-03-11T05:35:17.126Z,3.50
2019-03-11T05:37:46.042Z,3.50
2019-03-11T05:40:15.766Z,3.50
2019-03-11T05:42:45.065Z,3.50
2019-03-11T05:45:15.394Z,3.60
2019-03-11T05:47:44.780Z,3.60
2019-03-11T05:50:14.080Z,3.60
2019-03-11T05:52:43.137Z,3.60
2019-03-11T05:55:12.429Z,3.60
2019-03-11T05:57:41.477Z,3.60
2019-03-11T06:00:15.065Z,3.60
2019-03-11T06:02:44.042Z,3.70
2019-03-11T06:05:13.270Z,3.70
2019-03-11T06:07:42.708Z,3.70
2019-03-11T06:10:12.271Z,3.40
2019-03-11T06:12:41.439Z,3.30
2019-03-11T06:15:10.971Z,3.20
2019-03-11T06:17:39.995Z,3.20
2019-03-11T06:20:21.339Z,3.10
2019-03-11T06:22:50.556Z,2.90
2019-03-11T06:25:19.911Z,2.80
2019-03-11T06:27:49.258Z,2.80
2019-03-11T06:30:18.276Z,2.70
2019-03-11T06:32:47.620Z,2.70
2019-03-11T06:35:16.723Z,2.70
2019-03-11T06:37:45.584Z,2.90
2019-03-11T06:40:15.271Z,2.80
2019-03-11T06:42:44.358Z,2.90
2019-03-11T06:45:13.556Z,2.90
2019-03-11T06:47:42.589Z,2.80
2019-03-11T06:50:11.578Z,2.80
2019-03-11T06:52:40.620Z,2.80
2019-03-11T06:55:09.719Z,2.90
2019-03-11T06:57:38.680Z,3.00
2019-03-11T07:00:10.435Z,3.00
2019-03-11T07:02:39.686Z,3.00
2019-03-11T07:05:19.238Z,3.00
2019-03-11T07:07:39.458Z,3.00
2019-03-11T07:10:09.737Z,3.00
2019-03-11T07:12:38.670Z,3.00
2019-03-11T07:15:08.436Z,3.00
2019-03-11T07:17:37.294Z,3.00
2019-03-11T07:20:07.218Z,3.10
2019-03-11T07:22:36.090Z,3.10
2019-03-11T07:25:05.423Z,3.10
2019-03-11T07:27:34.534Z,3.00
2019-03-11T07:30:04.478Z,3.20
2019-03-11T07:32:33.449Z,3.20
2019-03-11T07:35:08.366Z,3.20
2019-03-11T07:37:33.318Z,3.40
2019-03-11T07:40:02.266Z,3.30
2019-03-11T07:42:31.191Z,3.30
2019-03-11T07:45:00.301Z,3.40
2019-03-11T07:47:29.271Z,3.40
2019-03-11T07:49:58.101Z,3.00
2019-03-11T07:55:01.986Z,3.50
2019-03-11T07:57:30.987Z,3.60
2019-03-11T07:59:59.800Z,3.80
2019-03-11T08:02:28.766Z,3.70
2019-03-11T08:04:57.567Z,3.60
2019-03-11T08:07:27.472Z,3.50
2019-03-11T08:09:57.133Z,3.50
2019-03-11T08:12:26.488Z,3.50
2019-03-11T08:14:55.450Z,3.50
2019-03-11T08:17:24.464Z,3.50
2019-03-11T08:19:53.304Z,3.50
2019-03-11T08:22:22.449Z,3.70
2019-03-11T08:24:54.084Z,3.70
2019-03-11T08:27:23.283Z,3.70
2019-03-11T08:29:52.296Z,3.80
2019-03-11T08:32:21.337Z,3.90
2019-03-11T08:34:51.196Z,4.20
2019-03-11T08:37:20.197Z,4.10
2019-03-11T08:39:49.981Z,4.00
2019-03-11T08:42:19.096Z,3.90
2019-03-11T08:44:48.184Z,3.90
2019-03-11T08:47:17.117Z,3.90
2019-03-11T08:49:46.366Z,4.10
2019-03-11T08:52:16.516Z,4.10
2019-03-11T08:54:46.083Z,4.10
2019-03-11T08:57:14.942Z,4.10
2019-03-11T08:59:43.847Z,4.20
2019-03-11T09:02:13.699Z,4.10
2019-03-11T09:04:42.999Z,4.10
2019-03-11T09:07:12.179Z,4.30
2019-03-11T09:09:41.369Z,4.30
2019-03-11T09:12:10.188Z,4.00
2019-03-11T09:14:39.951Z,3.90
2019-03-11T09:17:09.140Z,3.80
2019-03-11T09:19:38.087Z,3.70
2019-03-11T09:22:07.134Z,3.80
2019-03-11T09:24:36.986Z,3.90
2019-03-11T09:27:05.986Z,4.10
2019-03-11T09:29:35.054Z,4.10
2019-03-11T09:32:04.481Z,4.20
2019-03-11T09:34:33.359Z,4.40
2019-03-11T09:37:02.449Z,4.50
2019-03-11T09:39:31.477Z,4.60
2019-03-11T09:42:00.777Z,4.60
2019-03-11T09:44:29.816Z,4.70
2019-03-11T09:46:58.752Z,4.70
2019-03-11T09:49:28.314Z,4.60
2019-03-11T09:51:57.484Z,4.80
2019-03-11T09:54:26.356Z,4.70
2019-03-11T09:56:55.271Z,4.70
2019-03-11T09:59:24.108Z,4.80
2019-03-11T10:01:53.051Z,4.90
2019-03-11T10:04:21.863Z,4.90
2019-03-11T10:06:51.143Z,4.90
2019-03-11T10:09:20.128Z,4.90
2019-03-11T10:11:49.302Z,4.90
2019-03-11T10:14:18.135Z,4.80
2019-03-11T10:16:47.042Z,4.90
2019-03-11T10:19:15.899Z,4.90
2019-03-11T10:21:44.732Z,4.90
2019-03-11T10:24:13.591Z,4.80
2019-03-11T10:26:42.583Z,4.80
2019-03-11T10:29:11.487Z,4.80
2019-03-11T10:31:40.363Z,4.90
2019-03-11T10:34:09.676Z,4.80
2019-03-11T10:36:38.534Z,4.90
2019-03-11T10:39:07.745Z,5.00
2019-03-11T10:41:36.642Z,5.00
2019-03-11T10:44:05.621Z,5.10
2019-03-11T10:46:34.839Z,5.00
2019-03-11T10:49:04.120Z,5.10
2019-03-11T10:51:33.373Z,4.90
2019-03-11T10:54:03.543Z,4.90
2019-03-11T10:56:32.483Z,4.70
2019-03-11T10:59:01.539Z,4.30
2019-03-11T11:01:30.369Z,3.50
2019-03-11T11:03:59.246Z,2.80
2019-03-11T11:06:28.261Z,2.70
2019-03-11T11:08:57.151Z,2.80
2019-03-11T11:11:26.129Z,3.00
2019-03-11T11:13:55.595Z,3.10
2019-03-11T11:16:24.615Z,3.30
2019-03-11T11:18:53.687Z,3.30
2019-03-11T11:21:22.833Z,3.30
2019-03-11T11:23:51.812Z,3.30
2019-03-11T11:26:21.006Z,3.40
2019-03-11T11:28:49.917Z,3.60
2019-03-11T11:31:19.233Z,3.70
2019-03-11T11:33:48.149Z,3.80
2019-03-11T11:36:17.464Z,3.90
2019-03-11T11:38:46.454Z,4.10
2019-03-11T11:41:18.822Z,4.20
2019-03-11T11:43:47.682Z,4.40
2019-03-11T11:46:16.913Z,4.70
2019-03-11T11:48:48.084Z,4.90
2019-03-11T11:51:16.915Z,5.20
2019-03-11T11:53:46.143Z,5.40
2019-03-11T11:56:18.040Z,5.60
2019-03-11T11:58:47.221Z,5.70
2019-03-11T12:01:16.118Z,5.80
2019-03-11T12:03:45.276Z,5.80
2019-03-11T12:06:14.688Z,6.00
2019-03-11T12:08:43.805Z,6.00
2019-03-11T12:11:15.264Z,6.10
2019-03-11T12:13:44.975Z,6.20
2019-03-11T12:16:17.213Z,6.10
2019-03-11T12:18:46.090Z,6.00
2019-03-11T12:21:15.415Z,6.30
2019-03-11T12:23:46.505Z,6.30
2019-03-11T12:26:15.088Z,6.40
2019-03-11T12:28:44.006Z,6.40
2019-03-11T12:33:47.342Z,6.80
2019-03-11T12:36:16.712Z,7.00
2019-03-11T12:38:45.533Z,7.10
2019-03-11T12:41:14.536Z,7.30
2019-03-11T12:43:43.513Z,7.50
2019-03-11T12:46:12.513Z,7.40
2019-03-11T12:48:41.433Z,7.60
2019-03-11T12:51:10.567Z,7.30
2019-03-11T12:53:40.007Z,7.40
2019-03-11T12:56:09.557Z,7.70
2019-03-11T12:58:41.778Z,7.70
2019-03-11T13:01:09.654Z,8.00
2019-03-11T13:03:38.757Z,8.20
2019-03-11T13:06:08.014Z,8.00
2019-03-11T13:08:37.099Z,7.70
2019-03-11T13:11:07.337Z,7.70
2019-03-11T13:13:36.228Z,7.70
2019-03-11T13:16:06.314Z,7.80
2019-03-11T13:18:44.489Z,7.70
2019-03-11T13:21:22.660Z,7.80
2019-03-11T13:23:51.787Z,7.90
2019-03-11T13:26:21.214Z,8.00
2019-03-11T13:28:50.114Z,8.10
2019-03-11T13:31:19.317Z,8.10
2019-03-11T13:33:48.119Z,8.20
2019-03-11T13:36:17.114Z,8.00
2019-03-11T13:38:46.384Z,7.90
2019-03-11T13:41:15.558Z,7.60
2019-03-11T13:43:44.513Z,7.80
2019-03-11T13:46:13.414Z,7.90
2019-03-11T13:48:42.660Z,8.00
2019-03-11T13:51:11.587Z,7.90
2019-03-11T13:53:40.635Z,7.50
2019-03-11T13:56:10.240Z,7.40
2019-03-11T13:58:40.202Z,7.50
2019-03-11T14:01:09.532Z,7.30
2019-03-11T14:03:39.087Z,7.20
2019-03-11T14:06:08.085Z,7.10
2019-03-11T14:08:36.984Z,7.40
2019-03-11T14:11:06.109Z,7.70
2019-03-11T14:13:35.302Z,7.80
2019-03-11T14:16:04.477Z,8.30
2019-03-11T14:18:33.352Z,8.10
2019-03-11T14:21:02.824Z,8.10
2019-03-11T14:23:32.146Z,8.00
2019-03-11T14:26:01.707Z,7.90
2019-03-11T14:28:31.151Z,8.00
2019-03-11T14:31:00.037Z,7.90
2019-03-11T14:33:28.994Z,7.90
2019-03-11T14:35:57.818Z,7.90
2019-03-11T14:38:26.754Z,7.90
2019-03-11T14:40:55.735Z,7.80
2019-03-11T14:43:24.897Z,7.90
2019-03-11T14:45:54.472Z,7.80
2019-03-11T14:48:23.303Z,7.80
2019-03-11T14:50:52.152Z,7.80
2019-03-11T14:53:21.165Z,7.80
2019-03-11T14:55:50.088Z,7.70
2019-03-11T14:58:29.043Z,7.60
2019-03-11T15:00:49.742Z,7.40
2019-03-11T15:03:19.295Z,7.60
2019-03-11T15:05:48.133Z,7.60
2019-03-11T15:08:17.138Z,7.80
2019-03-11T15:10:48.015Z,7.70
2019-03-11T15:13:16.839Z,8.00
2019-03-11T15:15:45.833Z,8.00
2019-03-11T15:18:14.791Z,8.00
2019-03-11T15:20:43.681Z,7.90
2019-03-11T15:23:20.516Z,8.20
2019-03-11T15:25:43.642Z,8.10
2019-03-11T15:28:13.225Z,8.10
2019-03-11T15:30:42.514Z,8.00
2019-03-11T15:33:11.499Z,7.80
2019-03-11T15:35:40.445Z,7.80
2019-03-11T15:38:09.431Z,7.70
2019-03-11T15:40:38.696Z,7.70
2019-03-11T15:43:08.031Z,7.80
2019-03-11T15:45:38.833Z,7.80
2019-03-11T15:48:08.123Z,7.90
2019-03-11T15:50:37.228Z,7.80
2019-03-11T15:53:06.324Z,7.80
2019-03-11T15:55:35.547Z,8.00
2019-03-11T15:58:05.152Z,7.90
2019-03-11T16:00:34.941Z,7.90
2019-03-11T16:03:05.033Z,7.80
2019-03-11T16:05:34.447Z,7.80
2019-03-11T16:08:03.897Z,7.80
2019-03-11T16:10:33.066Z,7.70
2019-03-11T16:13:01.950Z,7.70
2019-03-11T16:15:31.040Z,7.80
2019-03-11T16:18:00.347Z,7.70
2019-03-11T16:20:29.562Z,7.70
2019-03-11T16:22:58.611Z,7.90
2019-03-11T16:25:28.450Z,8.00
2019-03-11T16:27:57.389Z,7.90
2019-03-11T16:30:26.537Z,7.80
2019-03-11T16:33:00.703Z,7.70
2019-03-11T16:35:27.358Z,7.60
2019-03-11T16:37:57.157Z,7.40
2019-03-11T16:40:26.622Z,7.30
2019-03-11T16:42:55.495Z,7.30
2019-03-11T16:45:25.177Z,7.10
2019-03-11T16:47:54.065Z,7.10
2019-03-11T16:50:23.396Z,7.20
2019-03-11T16:52:52.799Z,7.10
2019-03-11T16:55:24.143Z,7.00
2019-03-11T16:57:53.929Z,6.90
2019-03-11T17:00:26.966Z,6.90
2019-03-11T17:02:57.076Z,6.90
2019-03-11T17:05:26.239Z,6.90
2019-03-11T17:07:55.174Z,6.90
2019-03-11T17:10:28.063Z,6.80
2019-03-11T17:12:57.407Z,6.80
2019-03-11T17:15:27.335Z,6.80
2019-03-11T17:17:56.525Z,6.80
2019-03-11T17:20:25.529Z,6.80
2019-03-11T17:22:55.067Z,6.80
2019-03-11T17:25:24.502Z,6.80
2019-03-11T17:27:54.591Z,6.80
2019-03-11T17:30:24.028Z,6.80
2019-03-11T17:32:52.966Z,6.80
2019-03-11T17:35:24.516Z,6.80
2019-03-11T17:37:53.564Z,6.90
2019-03-11T17:40:23.029Z,6.90
2019-03-11T17:42:53.202Z,6.90
2019-03-11T17:45:22.325Z,6.90
2019-03-11T17:47:51.679Z,6.90
2019-03-11T17:50:20.843Z,6.80
2019-03-11T17:52:50.117Z,6.80
2019-03-11T17:55:19.284Z,6.80
2019-03-11T17:57:49.368Z,6.80
2019-03-11T18:00:25.664Z,6.70
2019-03-11T18:02:55.638Z,6.80
2019-03-11T18:05:24.845Z,6.70
2019-03-11T18:07:53.859Z,6.70
2019-03-11T18:10:22.814Z,6.70
2019-03-11T18:12:51.918Z,6.70
2019-03-11T18:15:34.893Z,6.70
2019-03-11T18:18:06.664Z,6.70
2019-03-11T18:20:36.391Z,6.70
2019-03-11T18:23:05.596Z,6.60
2019-03-11T18:25:34.399Z,6.70
2019-03-11T18:28:03.407Z,6.60
2019-03-11T18:30:32.975Z,6.60
2019-03-11T18:33:02.719Z,6.70
2019-03-11T18:35:34.010Z,6.60
2019-03-11T18:38:04.900Z,6.60
2019-03-11T18:40:34.036Z,6.70
2019-03-11T18:43:02.942Z,6.60
2019-03-11T18:45:32.440Z,6.70
2019-03-11T18:48:01.442Z,6.60
2019-03-11T18:50:30.673Z,6.60
2019-03-11T18:52:59.636Z,6.60
2019-03-11T18:55:29.109Z,6.50
2019-03-11T18:57:58.105Z,6.60
2019-03-11T19:00:27.488Z,6.50
2019-03-11T19:02:56.659Z,6.50
2019-03-11T19:05:25.678Z,6.50
2019-03-11T19:07:55.518Z,6.40
2019-03-11T19:10:25.013Z,6.50
2019-03-11T19:12:54.077Z,6.40
2019-03-11T19:15:23.427Z,6.40
2019-03-11T19:18:11.919Z,6.40
2019-03-11T19:20:40.941Z,6.30
2019-03-11T19:23:09.875Z,6.30
2019-03-11T19:25:41.529Z,6.30
2019-03-11T19:28:09.709Z,6.30
2019-03-11T19:30:38.860Z,6.30
2019-03-11T19:33:07.887Z,6.30
2019-03-11T19:35:36.801Z,6.30
2019-03-11T19:38:06.352Z,6.30
2019-03-11T19:40:35.469Z,6.30
2019-03-11T19:43:04.650Z,6.30
2019-03-11T19:45:34.153Z,6.30
2019-03-11T19:48:03.084Z,6.30
2019-03-11T19:50:32.319Z,6.30
2019-03-11T19:53:01.180Z,6.20
2019-03-11T19:55:30.106Z,6.20
2019-03-11T19:57:59.184Z,6.20
2019-03-11T20:00:28.348Z,6.20
2019-03-11T20:02:57.939Z,6.20
2019-03-11T20:05:27.126Z,6.10
2019-03-11T20:07:56.830Z,6.10
2019-03-11T20:10:26.075Z,6.10
2019-03-11T20:12:55.278Z,6.10
2019-03-11T20:15:24.704Z,6.00
2019-03-11T20:17:53.813Z,6.00
2019-03-11T20:20:23.155Z,6.00
2019-03-11T20:22:52.253Z,6.00
2019-03-11T20:25:25.715Z,6.00
2019-03-11T20:27:55.248Z,6.00
2019-03-11T20:30:25.358Z,6.00
2019-03-11T20:32:54.848Z,6.00
2019-03-11T20:35:23.741Z,6.00
2019-03-11T20:37:53.275Z,6.00
2019-03-11T20:40:22.401Z,6.00
2019-03-11T20:42:51.375Z,6.00
2019-03-11T20:45:20.610Z,5.90
2019-03-11T20:47:49.658Z,5.90
2019-03-11T20:50:19.724Z,5.90
2019-03-11T20:52:48.813Z,5.80
2019-03-11T20:55:18.069Z,5.80
2019-03-11T20:57:47.158Z,5.70
2019-03-11T21:00:18.105Z,5.60
2019-03-11T21:02:47.042Z,5.60
2019-03-11T21:05:16.788Z,5.50
2019-03-11T21:07:45.726Z,5.50
2019-03-11T21:10:15.440Z,5.40
2019-03-11T21:12:44.883Z,5.30
2019-03-11T21:15:14.740Z,5.30
2019-03-11T21:17:43.728Z,5.30
2019-03-11T21:20:14.151Z,5.20
2019-03-11T21:22:43.720Z,5.20
2019-03-11T21:25:14.575Z,5.20
2019-03-11T21:27:44.486Z,5.10
2019-03-11T21:30:15.698Z,5.10
2019-03-11T21:32:44.671Z,5.10
2019-03-11T21:35:14.794Z,5.00
2019-03-11T21:37:44.085Z,5.00
2019-03-11T21:40:15.118Z,5.10
2019-03-11T21:42:44.024Z,5.00
2019-03-11T21:45:13.522Z,4.90
2019-03-11T21:47:42.880Z,4.90
2019-03-11T21:50:20.125Z,4.80
2019-03-11T21:52:50.089Z,4.80
2019-03-11T21:55:19.128Z,4.70
2019-03-11T21:57:48.370Z,4.80
2019-03-11T22:00:32.805Z,4.70
2019-03-11T22:02:53.260Z,4.70
2019-03-11T22:05:23.746Z,4.70
2019-03-11T22:07:52.689Z,4.60
2019-03-11T22:10:26.660Z,4.60
2019-03-11T22:12:55.239Z,4.50
2019-03-11T22:15:26.035Z,4.50
2019-03-11T22:17:58.731Z,4.50
2019-03-11T22:20:27.609Z,4.50
2019-03-11T22:22:56.877Z,4.50
2019-03-11T22:25:25.975Z,4.40
2019-03-11T22:27:55.186Z,4.40
2019-03-11T22:30:24.332Z,4.40
2019-03-11T22:32:53.462Z,4.40
2019-03-11T22:35:22.343Z,4.40
2019-03-11T22:37:51.331Z,4.40
2019-03-11T22:40:20.425Z,4.30
2019-03-11T22:42:49.434Z,4.30
2019-03-11T22:45:20.516Z,4.30
2019-03-11T22:47:49.724Z,4.30
2019-03-11T22:50:19.084Z,4.30
2019-03-11T22:52:48.136Z,4.30
2019-03-11T22:55:17.244Z,4.30
2019-03-11T22:57:46.202Z,4.20
2019-03-11T23:00:23.221Z,4.20
2019-03-11T23:02:52.258Z,4.10
2019-03-11T23:05:21.266Z,4.10
2019-03-11T23:07:50.247Z,4.00
2019-03-11T23:10:19.503Z,4.00
2019-03-11T23:12:48.464Z,4.00
2019-03-11T23:15:17.509Z,3.90
2019-03-11T23:17:46.326Z,4.00
2019-03-11T23:20:15.572Z,4.00
2019-03-11T23:22:44.697Z,4.00
2019-03-11T23:25:13.975Z,4.10
2019-03-11T23:27:43.087Z,4.00
2019-03-11T23:30:12.336Z,4.00
2019-03-11T23:32:41.331Z,4.00
2019-03-11T23:35:11.043Z,3.90
2019-03-11T23:37:40.025Z,3.90
2019-03-11T23:40:09.727Z,3.90
2019-03-11T23:42:38.650Z,3.90
2019-03-11T23:45:07.679Z,3.90
2019-03-11T23:47:36.536Z,3.70
2019-03-11T23:50:05.798Z,3.80
2019-03-11T23:52:35.383Z,3.70
2019-03-11T23:55:05.358Z,3.70
2019-03-11T23:57:34.448Z,3.70
